Time;durP1;ratioP1;P1;durP2;ratioP2;P2;SDS_P1;SDS_P2;PMS_P1;PMS_P2;Temp;Humidity;BMP_temperature;BMP_pressure;BME280_temperature;BME280_humidity;BME280_pressure;Samples;Min_cycle;Max_cycle;Signal;HPM_P1;HPM_P2
2021/11/16 00:41:13;;;;;;;36.97;21.75;;;7.30;99.90;;;;;;5613299;22;20223;-91
2021/11/16 03:21:59;;;;;;;34.53;23.25;;;7.70;99.90;;;;;;5893235;22;20206;-89
2021/11/16 04:29:22;;;;;;;25.25;17.67;;;;;;;;;;5306539;22;20231;-89
2021/11/16 04:43:08;;;;;;;28.48;18.45;;;7.60;99.90;;;;;;5649909;22;20216;-90
2021/11/16 04:45:36;;;;;;;27.13;17.40;;;7.50;99.90;;;;;;5037785;28;20148;-87
2021/11/16 04:48:11;;;;;;;24.50;16.95;;;7.40;99.90;;;;;;5386333;22;20254;-89
2021/11/16 04:51:11;;;;;;;31.17;19.05;;;7.60;99.90;;;;;;5839075;22;20219;-89
2021/11/16 05:03:02;;;;;;;29.38;18.35;;;;;;;;;;4108124;26;20223;-90
2021/11/16 05:05:28;;;;;;;29.58;19.98;;;;;;;;;;5037231;28;20180;-89
2021/11/16 05:08:01;;;;;;;30.48;17.30;;;7.40;99.90;;;;;;5037895;28;20212;-91
2021/11/16 05:10:30;;;;;;;29.02;18.73;;;;;;;;;;5036084;28;20160;-90
2021/11/16 05:16:05;;;;;;;;;;;;;;;;;;;;;
2021/11/16 05:18:32;;;;;;;28.55;19.45;;;;;;;;;;5021475;28;20202;-89
2021/11/16 05:21:37;;;;;;;31.42;20.58;;;7.50;99.90;;;;;;5058542;28;20175;-90
2021/11/16 05:24:25;;;;;;;30.25;19.25;;;7.50;99.90;;;;;;5043092;28;20167;-89
2021/11/16 05:27:31;;;;;;;31.85;19.92;;;7.50;99.90;;;;;;5044387;28;20180;-90
2021/11/16 05:30:10;;;;;;;32.08;20.80;;;6.80;99.90;;;;;;5040972;28;20172;-90
2021/11/16 05:33:15;;;;;;;27.55;17.85;;;7.50;99.90;;;;;;5044684;28;20193;-88
2021/11/16 05:36:19;;;;;;;26.40;18.70;;;7.70;99.90;;;;;;4998892;28;20702;-90
2021/11/16 05:39:32;;;;;;;21.75;15.98;;;7.60;99.90;;;;;;5045082;28;20176;-90
2021/11/16 05:42:10;;;;;;;24.20;17.23;;;7.70;99.90;;;;;;5058101;28;20160;-91
2021/11/16 05:45:03;;;;;;;25.23;17.65;;;7.70;99.90;;;;;;5057665;28;20176;-90
2021/11/16 05:48:05;;;;;;;25.88;18.00;;;7.70;99.90;;;;;;5307987;22;20228;-89
2021/11/16 05:50:32;;;;;;;25.67;16.58;;;;;;;;;;5022200;28;20196;-87
2021/11/16 05:53:06;;;;;;;29.60;17.15;;;7.80;99.90;;;;;;5022306;28;20618;-91
2021/11/16 05:55:57;;;;;;;27.77;19.05;;;7.50;99.90;;;;;;5037548;28;20203;-92
2021/11/16 05:58:57;;;;;;;29.17;18.10;;;7.80;99.90;;;;;;5033251;28;20204;-90
2021/11/16 06:01:56;;;;;;;26.83;15.30;;;7.90;99.90;;;;;;5037760;28;20152;-90
2021/11/16 06:04:33;;;;;;;26.40;16.95;;;;;;;;;;5036266;28;20161;-91
2021/11/16 06:07:02;;;;;;;25.73;17.65;;;7.50;99.90;;;;;;5019674;28;20316;-89
2021/11/16 06:09:37;;;;;;;27.65;15.75;;;7.60;99.90;;;;;;5133018;22;20159;31
2021/11/16 06:18:23;;;;;;;22.73;14.70;;;7.30;99.90;;;;;;5049840;22;20226;-89
2021/11/16 06:21:30;;;;;;;20.20;15.25;;;7.30;99.90;;;;;;5053188;28;20206;-89
2021/11/16 06:24:35;;;;;;;27.13;16.95;;;7.20;99.90;;;;;;5056448;28;20179;-91
2021/11/16 06:29:36;;;;;;;27.70;17.48;;;7.30;99.90;;;;;;5212909;22;20274;-89
2021/11/16 06:32:06;;;;;;;26.48;16.52;;;10.50;99.90;;;;;;5015702;28;20181;-90
2021/11/16 06:43:38;;;;;;;22.33;14.80;;;6.90;99.90;;;;;;5037443;28;20206;-89
2021/11/16 06:46:09;;;;;;;30.05;18.00;;;7.20;99.90;;;;;;5035063;28;20426;-88
2021/11/16 06:48:36;;;;;;;25.90;17.63;;;8.20;99.90;;;;;;5037696;28;20199;-88
2021/11/16 06:51:12;;;;;;;26.20;16.33;;;7.20;99.90;;;;;;5034788;28;20172;-90
2021/11/16 06:53:41;;;;;;;26.33;17.25;;;;;;;;;;5053395;28;20179;-90
2021/11/16 06:56:08;;;;;;;27.67;16.98;;;;;;;;;;5054191;28;20164;-86
2021/11/16 06:59:01;;;;;;;24.27;13.73;;;7.20;99.90;;;;;;5037648;28;20176;-89
2021/11/16 07:01:49;;;;;;;;;;;;;;;;;;;;;
2021/11/16 07:04:54;;;;;;;25.77;17.52;;;7.30;99.90;;;;;;5040169;28;20203;-90
2021/11/16 07:08:04;;;;;;;28.45;16.15;;;7.10;99.90;;;;;;4954949;28;20215;-89
2021/11/16 07:11:27;;;;;;;23.63;14.52;;;7.30;99.90;;;;;;5054166;28;20188;-89
2021/11/16 07:17:09;;;;;;;28.13;17.40;;;7.10;99.90;;;;;;5040066;28;20176;-89
2021/11/16 07:26:11;;;;;;;33.10;19.85;;;10.10;99.90;;;;;;5008649;28;20204;-91
2021/11/16 07:29:07;;;;;;;29.05;16.83;;;7.20;99.90;;;;;;4996637;28;20280;-88
2021/11/16 07:31:52;;;;;;;28.80;17.33;;;7.20;99.90;;;;;;4996254;28;20173;-90
2021/11/16 07:34:21;;;;;;;30.42;17.80;;;7.40;99.90;;;;;;4979352;28;20653;-89
2021/11/16 07:37:01;;;;;;;31.58;17.30;;;7.30;99.90;;;;;;5213709;22;20485;-86
2021/11/16 07:42:09;;;;;;;26.00;16.40;;;7.20;99.90;;;;;;4978966;26;20243;-90
2021/11/16 07:44:36;;;;;;;28.08;16.95;;;7.20;99.90;;;;;;5031874;28;20189;-91
2021/11/16 07:47:04;;;;;;;32.13;17.27;;;7.30;99.90;;;;;;5009842;28;20216;-90
2021/11/16 07:50:03;;;;;;;29.83;18.10;;;7.20;99.90;;;;;;5029480;28;20216;-90
2021/11/16 07:53:07;;;;;;;33.25;18.17;;;7.20;99.90;;;;;;4978035;28;20172;-90
2021/11/16 07:58:14;;;;;;;26.58;16.52;;;7.30;99.90;;;;;;4685431;22;20722;-88
2021/11/16 08:03:47;;;;;;;29.40;17.13;;;7.40;99.90;;;;;;5390383;22;20506;31
2021/11/16 08:06:24;;;;;;;30.77;18.92;;;7.40;99.90;;;;;;5162706;22;21551;-89
2021/11/16 08:09:06;;;;;;;30.25;16.42;;;;;;;;;;5286989;22;20224;-89
2021/11/16 08:14:18;;;;;;;27.98;16.25;;;7.30;99.90;;;;;;3987675;22;20226;-87
2021/11/16 08:28:18;;;;;;;;;;;;;;;;;;;;;
2021/11/16 08:33:20;;;;;;;33.45;20.67;;;;;;;;;;5440371;22;20246;-86
2021/11/16 08:35:48;;;;;;;32.10;19.52;;;;;;;;;;5164036;22;20252;-86
2021/11/16 08:38:15;;;;;;;30.63;18.45;;;;;;;;;;5036029;28;20628;-88
2021/11/16 08:40:57;;;;;;;35.22;19.33;;;7.20;99.90;;;;;;5177391;22;20228;-89
2021/11/16 08:43:35;;;;;;;40.63;20.73;;;;;;;;;;5159220;22;20222;-88
2021/11/16 08:46:03;;;;;;;28.30;17.70;;;;;;;;;;5033279;28;20239;-88
2021/11/16 08:51:44;;;;;;;31.40;18.52;;;7.30;99.90;;;;;;5411851;22;20270;-89
2021/11/16 08:56:46;;;;;;;28.92;16.95;;;;;;;;;;3077190;26;20291;-87
2021/11/16 08:59:20;;;;;;;32.53;19.05;;;7.30;99.90;;;;;;5272658;22;20231;-86
2021/11/16 09:04:30;;;;;;;35.47;19.35;;;7.10;99.90;;;;;;5394188;22;20223;-90
2021/11/16 09:09:28;;;;;;;32.00;17.83;;;;;;;;;;5427567;22;21679;-90
2021/11/16 09:12:38;;;;;;;35.30;20.65;;;7.20;99.90;;;;;;5063487;22;20260;-90
2021/11/16 09:15:17;;;;;;;34.28;20.55;;;7.30;99.90;;;;;;5090297;22;20282;-90
2021/11/16 09:17:45;;;;;;;34.38;19.90;;;;;;;;;;5063473;22;20710;-88
2021/11/16 09:21:08;;;;;;;34.03;20.20;;;7.30;99.90;;;;;;5017546;28;20176;-89
2021/11/16 09:23:41;;;;;;;33.05;18.40;;;7.30;99.90;;;;;;5175722;22;20721;-88
2021/11/16 09:29:21;;;;;;;36.28;17.73;;;7.40;99.90;;;;;;4140829;22;20203;-89
2021/11/16 09:32:03;;;;;;;30.83;18.40;;;7.40;99.90;;;;;;5424013;22;20308;-90
2021/11/16 09:37:41;;;;;;;33.13;17.97;;;7.30;99.90;;;;;;5696479;22;20198;-88
2021/11/16 09:45:27;;;;;;;32.45;19.63;;;;;;;;;;5135850;22;20236;-86
2021/11/16 09:50:29;;;;;;;33.20;18.65;;;;;;;;;;5002155;26;20237;-81
2021/11/16 09:53:20;;;;;;;31.50;18.40;;;7.50;99.90;;;;;;5006840;28;20161;-88
2021/11/16 09:55:50;;;;;;;37.10;20.52;;;;;;;;;;5229260;22;20268;-87
2021/11/16 09:58:52;;;;;;;34.35;19.30;;;7.50;99.90;;;;;;5010050;28;20177;-86
2021/11/16 10:01:10;;;;;;;39.33;20.35;;;;;;;;;;5010658;28;20192;-85
2021/11/16 10:03:36;;;;;;;31.38;19.73;;;;;;;;;;5007247;28;20176;-85
2021/11/16 10:06:02;;;;;;;32.53;18.33;;;;;;;;;;5011993;28;20173;-84
2021/11/16 10:08:28;;;;;;;29.90;17.27;;;;;;;;;;5015144;28;20471;-84
2021/11/16 10:10:58;;;;;;;28.75;18.02;;;7.70;99.90;;;;;;5015749;28;20407;-84
2021/11/16 10:13:32;;;;;;;33.35;18.65;;;7.60;99.90;;;;;;5015454;28;20179;-84
2021/11/16 10:16:03;;;;;;;32.38;17.00;;;7.70;99.90;;;;;;5001793;28;20516;-84
2021/11/16 10:18:31;;;;;;;31.92;18.27;;;7.70;99.90;;;;;;5016002;28;20173;-85
2021/11/16 10:20:57;;;;;;;35.45;20.58;;;7.80;99.90;;;;;;5016132;28;20156;-87
2021/11/16 10:23:32;;;;;;;28.90;16.83;;;7.60;99.90;;;;;;5015112;28;20184;-85
2021/11/16 10:25:59;;;;;;;31.45;18.40;;;8.00;99.90;;;;;;4998823;28;20415;-84
2021/11/16 10:28:31;;;;;;;30.83;17.83;;;7.60;99.90;;;;;;5015450;28;20208;-86
2021/11/16 10:30:59;;;;;;;26.67;15.73;;;7.80;99.90;;;;;;5017800;28;20169;-85
2021/11/16 10:33:32;;;;;;;31.90;17.50;;;8.10;99.90;;;;;;5018979;28;20172;-85
2021/11/16 10:36:13;;;;;;;26.57;18.37;;;7.70;99.90;;;;;;5016576;28;20239;-83
2021/11/16 10:38:45;;;;;;;33.80;18.35;;;8.10;99.90;;;;;;5002797;28;20561;-84
2021/11/16 10:41:33;;;;;;;27.95;16.35;;;8.20;99.90;;;;;;5015383;28;20261;-83
2021/11/16 10:44:00;;;;;;;27.08;17.45;;;8.30;99.90;;;;;;4999190;28;20504;-82
2021/11/16 10:46:42;;;;;;;28.77;16.35;;;8.20;99.90;;;;;;5015832;28;20191;-83
2021/11/16 10:49:10;;;;;;;26.02;17.42;;;8.20;99.90;;;;;;5015033;28;20200;-84
2021/11/16 10:51:37;;;;;;;29.10;18.45;;;8.20;99.90;;;;;;4997661;28;20173;-83
2021/11/16 10:54:04;;;;;;;29.30;17.30;;;8.30;99.90;;;;;;5015273;28;20176;-85
2021/11/16 10:56:34;;;;;;;28.90;19.20;;;8.00;99.90;;;;;;5031564;28;20220;-85
2021/11/16 10:59:13;;;;;;;28.10;17.83;;;8.30;99.90;;;;;;5017028;28;20213;-84
2021/11/16 11:01:47;;;;;;;24.20;16.60;;;8.30;99.90;;;;;;4663134;28;9999715;-86
2021/11/16 11:04:18;;;;;;;23.95;16.85;;;8.10;99.90;;;;;;5012661;28;20211;-86
2021/11/16 11:06:45;;;;;;;24.67;16.13;;;8.30;99.90;;;;;;4995927;28;20172;-85
2021/11/16 11:09:14;;;;;;;26.15;17.88;;;8.10;99.90;;;;;;5014610;28;20270;-83
2021/11/16 11:11:42;;;;;;;27.90;15.65;;;8.20;99.90;;;;;;5015310;28;20180;-85
2021/11/16 11:14:19;;;;;;;25.10;15.10;;;8.40;99.90;;;;;;5013879;28;20177;-85
2021/11/16 11:16:58;;;;;;;25.53;17.40;;;8.20;99.90;;;;;;5001690;28;20195;-83
2021/11/16 11:19:31;;;;;;;26.10;17.67;;;8.10;99.90;;;;;;5034284;28;20414;-84
2021/11/16 11:22:23;;;;;;;25.10;15.52;;;8.20;99.90;;;;;;5036192;28;20647;-84
2021/11/16 11:25:07;;;;;;;25.83;16.92;;;8.30;99.90;;;;;;5017990;28;20176;-85
2021/11/16 11:27:44;;;;;;;31.00;17.55;;;7.00;99.90;;;;;;5034490;28;20211;-84
2021/11/16 11:30:15;;;;;;;34.70;18.65;;;8.40;99.90;;;;;;5016665;28;20199;-83
2021/11/16 11:32:44;;;;;;;27.98;19.08;;;8.20;99.90;;;;;;5034105;28;20596;-83
2021/11/16 11:35:12;;;;;;;25.98;16.70;;;8.40;99.90;;;;;;5034208;28;20178;-85
2021/11/16 11:37:41;;;;;;;25.77;16.52;;;8.00;99.90;;;;;;5034049;28;20521;-84
2021/11/16 11:40:13;;;;;;;28.95;18.50;;;8.40;99.90;;;;;;5034154;28;20168;-85
2021/11/16 11:42:40;;;;;;;33.83;19.30;;;8.50;99.90;;;;;;5034881;28;20176;-84
2021/11/16 11:45:21;;;;;;;33.50;21.08;;;8.30;99.90;;;;;;5034401;28;20181;-84
2021/11/16 11:47:50;;;;;;;32.67;20.25;;;8.40;99.90;;;;;;5016250;28;20200;-86
2021/11/16 11:50:27;;;;;;;30.65;18.98;;;8.60;99.90;;;;;;5034102;28;20176;-85
2021/11/16 11:52:53;;;;;;;32.15;18.40;;;8.10;99.90;;;;;;5033769;28;20170;-84
2021/11/16 11:55:20;;;;;;;27.03;19.30;;;8.00;99.90;;;;;;5033862;28;20219;-84
2021/11/16 11:57:47;;;;;;;34.50;20.80;;;8.30;99.90;;;;;;5033950;28;20962;-84
2021/11/16 12:00:14;;;;;;;30.83;18.00;;;8.20;99.90;;;;;;5016758;28;20812;-84
2021/11/16 12:02:41;;;;;;;26.27;17.00;;;8.40;99.90;;;;;;5033556;28;20415;-84
2021/11/16 12:05:07;;;;;;;32.28;19.30;;;8.40;99.90;;;;;;5016222;28;20179;-84
2021/11/16 12:07:33;;;;;;;28.97;17.57;;;8.40;99.90;;;;;;5033478;28;20199;-87
2021/11/16 12:10:01;;;;;;;34.03;18.77;;;8.50;99.90;;;;;;5033285;28;20168;-85
2021/11/16 12:12:27;;;;;;;24.55;17.40;;;10.70;99.90;;;;;;5034243;28;20206;-85
2021/11/16 12:15:01;;;;;;;30.05;19.80;;;8.40;99.90;;;;;;5034003;28;20186;-86
2021/11/16 12:17:30;;;;;;;31.52;18.98;;;7.80;99.90;;;;;;5033857;28;20240;-85
2021/11/16 12:19:56;;;;;;;31.23;18.97;;;8.40;99.90;;;;;;5034476;28;20176;-85
2021/11/16 12:22:30;;;;;;;27.42;16.55;;;8.60;99.90;;;;;;5033318;28;20402;-86
2021/11/16 12:25:16;;;;;;;32.80;18.75;;;8.50;99.90;;;;;;5016516;28;20181;-85
2021/11/16 12:27:42;;;;;;;31.50;19.40;;;8.20;99.90;;;;;;5016523;28;20567;-85
2021/11/16 12:30:09;;;;;;;32.33;19.70;;;8.00;99.90;;;;;;5033357;28;20414;-86
2021/11/16 12:32:37;;;;;;;33.55;19.92;;;7.80;99.90;;;;;;5032826;28;20164;-85
2021/11/16 12:35:15;;;;;;;31.48;20.08;;;8.20;99.90;;;;;;5032986;28;20160;-85
2021/11/16 12:37:52;;;;;;;36.55;18.25;;;8.10;99.90;;;;;;5032713;28;20171;-87
2021/11/16 12:40:28;;;;;;;31.02;20.00;;;8.30;99.90;;;;;;5033758;28;20496;-84
2021/11/16 12:43:15;;;;;;;32.15;20.25;;;8.30;99.90;;;;;;5034055;28;20530;-85
2021/11/16 12:45:51;;;;;;;28.67;18.85;;;8.20;99.90;;;;;;5032737;28;20278;-85
2021/11/16 12:48:19;;;;;;;28.00;19.05;;;8.30;99.90;;;;;;5032818;28;20199;-85
2021/11/16 12:51:12;;;;;;;34.28;20.40;;;8.20;99.90;;;;;;5033370;28;20167;-86
2021/11/16 12:53:53;;;;;;;33.90;20.65;;;8.40;99.90;;;;;;5032987;28;20254;-83
2021/11/16 12:56:21;;;;;;;29.95;19.40;;;8.20;99.90;;;;;;5033018;28;20568;-85
2021/11/16 12:58:57;;;;;;;33.85;19.35;;;8.10;99.90;;;;;;5033575;28;20180;-84
2021/11/16 13:01:41;;;;;;;32.53;19.75;;;8.20;99.90;;;;;;5024954;28;20168;-85
2021/11/16 13:04:09;;;;;;;29.20;20.17;;;7.80;99.90;;;;;;5004423;28;20180;-84
2021/11/16 13:06:39;;;;;;;35.28;21.08;;;8.00;99.90;;;;;;4976351;28;20181;-84
2021/11/16 13:09:08;;;;;;;32.93;18.97;;;8.30;99.90;;;;;;4302074;28;10000733;-86
2021/11/16 13:11:49;;;;;;;35.97;20.23;;;7.90;99.90;;;;;;4973886;28;20633;-85
2021/11/16 13:14:36;;;;;;;33.47;20.27;;;8.10;99.90;;;;;;4993406;28;20656;-86
2021/11/16 13:17:40;;;;;;;33.13;19.98;;;8.00;99.90;;;;;;4991513;28;20173;-85
2021/11/16 13:20:14;;;;;;;38.13;21.23;;;8.00;99.90;;;;;;4998194;28;20169;-90
2021/11/16 13:23:51;;;;;;;;;;;;;;;;;;;;;
2021/11/16 13:26:38;;;;;;;;;;;;;;;;;;;;;
2021/11/16 13:29:20;;;;;;;31.73;21.15;;;7.90;99.90;;;;;;5102892;23;20245;-88
2021/11/16 13:32:05;;;;;;;33.58;20.70;;;9.50;99.90;;;;;;5033872;28;20244;-87
2021/11/16 13:34:32;;;;;;;35.58;21.02;;;8.00;99.90;;;;;;5052243;28;20175;-88
2021/11/16 13:37:16;;;;;;;34.75;21.08;;;7.70;99.90;;;;;;5052296;28;20520;-87
2021/11/16 13:39:42;;;;;;;37.03;21.85;;;;;;;;;;5051147;28;20214;-88
2021/11/16 13:42:14;;;;;;;31.47;20.43;;;8.00;99.90;;;;;;5034243;28;20538;-85
2021/11/16 13:44:56;;;;;;;41.08;23.20;;;7.60;99.90;;;;;;5055119;28;20485;-87
2021/11/16 13:47:45;;;;;;;34.72;20.67;;;7.90;99.90;;;;;;5036998;28;20206;-88
2021/11/16 13:50:14;;;;;;;45.38;23.42;;;6.70;99.90;;;;;;5037148;28;20163;-86
2021/11/16 13:52:49;;;;;;;40.13;23.33;;;7.20;99.90;;;;;;5037957;28;20214;-85
2021/11/16 13:55:21;;;;;;;37.15;21.20;;;7.20;99.90;;;;;;5054594;28;20166;-89
2021/11/16 13:57:53;;;;;;;37.03;21.30;;;8.70;99.90;;;;;;5037010;28;20255;-87
2021/11/16 14:00:30;;;;;;;36.38;21.95;;;8.00;99.90;;;;;;5037039;28;20414;-87
2021/11/16 14:03:02;;;;;;;36.55;20.95;;;8.00;99.90;;;;;;5037082;28;20204;-87
2021/11/16 14:05:30;;;;;;;34.55;20.15;;;8.00;99.90;;;;;;5056433;28;20239;-88
2021/11/16 14:08:00;;;;;;;34.08;17.85;;;7.30;99.90;;;;;;5062292;28;20567;-86
2021/11/16 14:10:34;;;;;;;37.42;22.75;;;8.60;99.90;;;;;;5057613;28;20171;-86
2021/11/16 14:13:22;;;;;;;36.22;20.38;;;8.00;99.90;;;;;;5076007;28;20591;-88
2021/11/16 14:15:49;;;;;;;39.60;22.80;;;9.30;99.90;;;;;;5074311;28;20175;-85
2021/11/16 14:18:42;;;;;;;38.10;21.25;;;7.90;99.90;;;;;;5076843;28;20202;-92
2021/11/16 14:21:51;;;;;;;40.20;22.33;;;7.80;99.90;;;;;;5277285;22;20236;-93
2021/11/16 14:24:45;;;;;;;37.33;22.50;;;7.70;99.90;;;;;;5017011;28;20696;-93
2021/11/16 14:27:27;;;;;;;37.28;22.67;;;7.60;99.90;;;;;;5013377;28;20185;-93
2021/11/16 14:30:25;;;;;;;41.75;21.35;;;7.60;99.90;;;;;;5058009;23;20220;-92
2021/11/16 14:39:31;;;;;;;43.27;23.17;;;7.60;99.90;;;;;;4135959;26;20292;-92
2021/11/16 14:42:41;;;;;;;34.63;19.30;;;7.50;99.90;;;;;;5010763;28;20466;-93
2021/11/16 14:45:36;;;;;;;43.00;22.73;;;7.40;99.90;;;;;;4930315;29;20160;-92
2021/11/16 14:48:35;;;;;;;44.20;22.95;;;7.40;99.90;;;;;;4926584;29;20216;-88
2021/11/16 14:52:02;;;;;;;;;;;;;;;;;;;;;
2021/11/16 14:54:38;;;;;;;36.35;22.60;;;7.30;99.90;;;;;;4990854;28;20190;-89
2021/11/16 14:59:41;;;;;;;44.70;23.25;;;;;;;;;;5061426;22;20223;-91
2021/11/16 15:02:17;;;;;;;41.92;22.75;;;7.40;99.90;;;;;;5046909;28;20176;-91
2021/11/16 15:05:21;;;;;;;37.35;22.25;;;7.40;99.90;;;;;;5066604;22;20212;-91
2021/11/16 15:08:11;;;;;;;39.90;22.05;;;7.40;99.90;;;;;;5045264;28;20211;-93
2021/11/16 15:11:04;;;;;;;46.80;23.63;;;7.40;99.90;;;;;;5047551;28;20176;-91
2021/11/16 15:14:02;;;;;;;43.58;22.92;;;7.30;99.90;;;;;;5034740;28;20176;-88
2021/11/16 15:16:59;;;;;;;43.03;23.58;;;7.30;99.90;;;;;;5020932;28;20691;-90
2021/11/16 15:19:56;;;;;;;38.90;22.03;;;7.40;99.90;;;;;;5041186;28;20219;-91
2021/11/16 15:23:07;;;;;;;45.80;23.33;;;7.40;99.90;;;;;;5043941;28;20418;-92
2021/11/16 15:25:56;;;;;;;40.25;23.65;;;7.20;99.90;;;;;;5043112;28;20187;-89
2021/11/16 15:28:30;;;;;;;43.92;22.05;;;7.20;99.90;;;;;;5042804;28;20215;-88
2021/11/16 15:30:59;;;;;;;39.50;20.25;;;;;;;;;;5047822;28;20257;-87
2021/11/16 15:33:49;;;;;;;47.72;22.35;;;7.40;99.90;;;;;;5047700;28;20176;-87
2021/11/16 15:36:42;;;;;;;44.78;24.48;;;7.20;99.90;;;;;;5040801;28;20180;-91
2021/11/16 15:39:28;;;;;;;47.80;23.58;;;7.20;99.90;;;;;;5041471;28;20222;-93
2021/11/16 15:41:58;;;;;;;48.20;23.27;;;;;;;;;;5043524;28;20271;-89
2021/11/16 15:47:37;;;;;;;48.20;23.42;;;7.20;99.90;;;;;;5039490;28;20207;-89
2021/11/16 15:50:36;;;;;;;42.78;23.50;;;7.20;99.90;;;;;;5042560;28;20243;-91
2021/11/16 15:59:33;;;;;;;46.30;23.50;;;7.20;99.90;;;;;;5396786;22;20247;-89
2021/11/16 16:02:41;;;;;;;40.60;21.75;;;7.10;99.90;;;;;;5036577;28;20238;-92
2021/11/16 16:05:22;;;;;;;41.03;21.27;;;7.10;99.90;;;;;;5035462;28;20210;-92
2021/11/16 16:10:57;;;;;;;45.03;22.30;;;;;;;;;;5016679;28;20179;-94
2021/11/16 16:14:34;;;;;;;44.97;21.90;;;7.10;99.90;;;;;;5067154;28;20159;-93
2021/11/16 16:17:19;;;;;;;;;;;;;;;;;;;;;
2021/11/16 16:19:47;;;;;;;41.58;21.63;;;;;;;;;;5064116;28;20639;-88
2021/11/16 16:22:24;;;;;;;46.63;23.53;;;;;;;;;;5047875;28;20626;-86
2021/11/16 16:24:53;;;;;;;45.58;22.50;;;;;;;;;;5054310;28;20797;-86
2021/11/16 16:27:21;;;;;;;46.30;23.55;;;;;;;;;;5055684;28;20186;-87
2021/11/16 16:29:52;;;;;;;44.90;22.55;;;7.10;99.90;;;;;;5052753;28;20204;-88
2021/11/16 16:32:22;;;;;;;43.55;23.23;;;;;;;;;;5047938;28;20179;-89
2021/11/16 16:34:48;;;;;;;45.05;20.70;;;;;;;;;;5056093;28;20258;-86
2021/11/16 16:37:14;;;;;;;41.40;19.97;;;;;;;;;;5049385;28;20249;-87
2021/11/16 16:40:07;;;;;;;;;;;;;;;;;;;;;
2021/11/16 16:42:37;;;;;;;43.15;22.98;;;;;;;;;;5054429;28;20627;-87
2021/11/16 16:45:09;;;;;;;43.15;21.38;;;7.20;99.90;;;;;;5054252;28;20761;-88
2021/11/16 16:47:44;;;;;;;43.95;22.80;;;7.20;99.90;;;;;;5050306;28;20600;-87
2021/11/16 16:50:12;;;;;;;40.97;21.80;;;7.20;99.90;;;;;;4685615;28;10000131;-84
2021/11/16 16:52:39;;;;;;;41.42;22.02;;;7.20;99.90;;;;;;5031399;28;20183;-87
2021/11/16 16:55:13;;;;;;;34.13;19.52;;;7.20;99.90;;;;;;5032551;28;20163;-85
2021/11/16 16:57:46;;;;;;;39.55;21.75;;;7.30;99.90;;;;;;5028888;28;20613;-86
2021/11/16 17:00:40;;;;;;;;;;;;;;;;;;;;;
2021/11/16 17:03:09;;;;;;;40.33;20.70;;;;;;;;;;5036293;28;20262;-88
2021/11/16 17:05:37;;;;;;;38.97;20.83;;;7.20;99.90;;;;;;5016723;28;20180;-86
2021/11/16 17:08:06;;;;;;;45.60;21.75;;;;;;;;;;5032142;28;20215;-88
2021/11/16 17:10:32;;;;;;;37.67;21.15;;;;;;;;;;5014985;28;20621;-87
2021/11/16 17:19:47;;;;;;;39.28;20.05;;;;;;;;;;4968919;28;20210;-87
2021/11/16 17:22:15;;;;;;;41.13;20.25;;;7.20;99.90;;;;;;5019331;28;20176;-92
2021/11/16 17:24:54;;;;;;;;;;;;;;;;;;;;;
2021/11/16 17:27:26;;;;;;;34.78;21.02;;;7.00;99.90;;;;;;5042363;28;20303;-89
2021/11/16 17:29:54;;;;;;;34.55;21.38;;;;;;;;;;5043096;28;20176;-89
2021/11/16 17:32:25;;;;;;;35.28;18.77;;;6.90;99.90;;;;;;5040927;28;20219;-87
2021/11/16 17:35:03;;;;;;;;;;;;;;;;;;;;;
2021/11/16 17:37:33;;;;;;;36.65;21.80;;;;;;;;;;5037573;28;20804;-88
2021/11/16 17:39:59;;;;;;;35.95;19.88;;;;;;;;;;5023203;28;20176;-86
2021/11/16 17:42:25;;;;;;;40.25;21.70;;;;;;;;;;5023378;28;20180;-88
2021/11/16 17:47:50;;;;;;;39.17;22.33;;;;;;;;;;5036410;28;20462;-93
2021/11/16 17:58:39;;;;;;;;;;;;;;;;;;;;;
2021/11/16 18:01:13;;;;;;;37.90;21.23;;;7.00;99.90;;;;;;4950695;28;20334;-84
2021/11/16 18:04:35;;;;;;;44.30;19.75;;;;;;;;;;5033024;28;20491;-87
2021/11/16 18:09:37;;;;;;;;;;;;;;;;;;;;;
2021/11/16 18:12:34;;;;;;;41.50;21.27;;;6.80;99.90;;;;;;5043569;28;20272;-93
2021/11/16 18:15:02;;;;;;;38.67;21.40;;;6.70;99.90;;;;;;4988212;28;20631;-91
2021/11/16 18:17:39;;;;;;;48.95;26.02;;;6.70;99.90;;;;;;5043568;28;20231;-92
2021/11/16 18:20:28;;;;;;;38.17;20.95;;;6.80;99.90;;;;;;5030927;28;20186;-91
2021/11/16 18:23:03;;;;;;;41.88;21.27;;;10.90;99.90;;;;;;5015363;28;20215;-92
2021/11/16 18:26:04;;;;;;;;;;;;;;;;;;;;;
2021/11/16 18:29:06;;;;;;;40.20;17.63;;;6.70;99.90;;;;;;5026328;28;20263;-93
2021/11/16 18:32:00;;;;;;;37.50;19.73;;;6.70;99.90;;;;;;5013726;28;20184;-94
2021/11/16 18:34:43;;;;;;;39.13;20.20;;;6.90;99.90;;;;;;5031556;28;20400;-91
2021/11/16 18:37:39;;;;;;;38.80;19.75;;;6.90;99.90;;;;;;4999131;28;20176;-93
2021/11/16 18:40:12;;;;;;;34.05;17.58;;;6.70;99.90;;;;;;5026609;28;20363;-92
2021/11/16 18:42:43;;;;;;;42.40;21.17;;;;;;;;;;5010445;28;20196;-91
2021/11/16 18:45:12;;;;;;;35.22;17.50;;;;;;;;;;5018276;28;20200;-89
2021/11/16 18:50:11;;;;;;;36.70;19.43;;;6.70;99.90;;;;;;5027354;28;20191;-87
2021/11/16 18:52:37;;;;;;;42.97;20.88;;;;;;;;;;5038383;28;20413;-89
2021/11/16 18:55:08;;;;;;;40.03;18.73;;;6.70;99.90;;;;;;5037402;28;20683;-90
2021/11/16 18:57:34;;;;;;;40.42;19.10;;;6.70;99.90;;;;;;5040856;28;20410;-92
2021/11/16 19:00:05;;;;;;;36.87;17.87;;;6.70;99.90;;;;;;5048401;28;20287;-93
2021/11/16 19:02:37;;;;;;;35.25;17.70;;;6.70;99.90;;;;;;5069984;28;20977;-92
2021/11/16 19:05:08;;;;;;;39.08;18.05;;;6.70;99.90;;;;;;5076590;28;20171;-92
2021/11/16 19:07:45;;;;;;;37.53;19.15;;;8.20;99.90;;;;;;5075539;28;20217;-93
2021/11/16 19:10:19;;;;;;;37.97;20.00;;;9.40;99.90;;;;;;5067220;28;20182;-89
2021/11/16 19:12:50;;;;;;;40.65;19.15;;;6.60;99.90;;;;;;5069642;28;20297;-91
2021/11/16 19:15:28;;;;;;;42.08;19.00;;;8.50;99.90;;;;;;5074188;28;20175;-87
2021/11/16 19:17:54;;;;;;;43.60;18.27;;;;;;;;;;5055472;28;20167;-91
2021/11/16 19:20:21;;;;;;;32.88;18.27;;;6.70;99.90;;;;;;5057806;28;20186;-88
2021/11/16 19:26:56;;;;;;;43.60;19.50;;;6.70;99.90;;;;;;5050519;28;20176;-93
2021/11/16 19:29:54;;;;;;;33.95;17.25;;;6.50;99.90;;;;;;5091294;28;20209;-92
2021/11/16 19:33:18;;;;;;;43.25;18.77;;;6.70;99.90;;;;;;5073810;28;20175;-91
2021/11/16 19:36:22;;;;;;;42.40;18.20;;;6.70;99.90;;;;;;5058663;28;20179;-93
2021/11/16 19:40:08;;;;;;;39.38;18.73;;;6.40;99.90;;;;;;5090322;28;20179;-92
2021/11/16 19:45:13;;;;;;;41.85;20.55;;;6.50;99.90;;;;;;5114590;23;20224;-89
2021/11/16 19:47:46;;;;;;;42.35;21.67;;;6.50;99.90;;;;;;5012466;28;20711;-90
2021/11/16 19:50:15;;;;;;;37.00;18.50;;;7.80;99.90;;;;;;5011967;28;20260;-89
2021/11/16 19:52:46;;;;;;;38.85;19.05;;;6.60;99.90;;;;;;5012582;28;20262;-90
2021/11/16 19:55:13;;;;;;;46.45;19.55;;;6.60;99.90;;;;;;5005830;28;20192;-88
2021/11/16 19:57:40;;;;;;;44.20;19.20;;;9.50;99.90;;;;;;5012894;28;20183;-90
2021/11/16 20:00:11;;;;;;;39.88;20.33;;;6.60;99.90;;;;;;5013508;28;20208;-90
2021/11/16 20:02:45;;;;;;;39.15;20.70;;;;;;;;;;5012882;28;20196;-90
2021/11/16 20:05:20;;;;;;;46.63;22.02;;;6.60;99.90;;;;;;5006004;28;20231;-90
2021/11/16 20:07:49;;;;;;;42.35;19.42;;;6.60;99.90;;;;;;5014033;28;20215;-90
2021/11/16 20:10:18;;;;;;;42.85;20.10;;;6.60;99.90;;;;;;5012642;28;20199;-90
2021/11/16 20:12:45;;;;;;;46.75;20.38;;;;;;;;;;5011369;28;20279;-90
2021/11/16 20:15:35;;;;;;;39.30;19.92;;;6.30;99.90;;;;;;5005615;28;20196;-90
2021/11/16 20:18:02;;;;;;;46.83;20.55;;;7.00;99.90;;;;;;5012817;28;20238;-89
2021/11/16 20:20:28;;;;;;;41.53;22.42;;;8.40;99.90;;;;;;5007723;28;20173;-90
2021/11/16 20:25:44;;;;;;;33.38;16.35;;;;;;;;;;5007385;28;20172;-91
2021/11/16 20:28:14;;;;;;;39.35;18.88;;;6.70;99.90;;;;;;5004822;28;20212;-89
2021/11/16 20:31:03;;;;;;;39.45;20.08;;;6.70;99.90;;;;;;5010636;28;20230;-90
2021/11/16 20:33:41;;;;;;;43.25;20.17;;;;;;;;;;5007498;28;20176;-90
2021/11/16 20:36:19;;;;;;;42.50;21.02;;;6.70;99.90;;;;;;4999923;28;20177;-88
2021/11/16 20:38:53;;;;;;;36.38;18.60;;;6.70;99.90;;;;;;4666877;28;10000319;-89
2021/11/16 20:41:39;;;;;;;42.55;19.30;;;;;;;;;;5006995;28;20606;-90
2021/11/16 21:03:46;;;;;;;34.67;18.17;;;;;;;;;;4964395;28;20202;-89
2021/11/16 21:06:36;;;;;;;37.58;19.20;;;6.50;99.90;;;;;;5016362;28;20552;-88
2021/11/16 21:09:12;;;;;;;36.30;18.02;;;7.80;99.90;;;;;;5015148;28;20215;-90
2021/11/16 21:11:57;;;;;;;;;;;;;;;;;;;;;
2021/11/16 21:14:24;;;;;;;39.30;17.50;;;6.50;99.90;;;;;;5033105;28;20180;-87
2021/11/16 21:16:53;;;;;;;42.72;19.08;;;6.50;99.90;;;;;;5033457;28;20168;-90
2021/11/16 21:19:24;;;;;;;33.72;18.05;;;6.50;99.90;;;;;;5015514;28;20176;-87
2021/11/16 21:21:56;;;;;;;40.05;18.15;;;6.40;99.90;;;;;;5015853;28;20172;-87
2021/11/16 21:24:22;;;;;;;33.55;17.02;;;;;;;;;;5015333;28;20518;-88
2021/11/16 21:26:57;;;;;;;34.60;16.73;;;6.40;99.90;;;;;;5033176;28;20261;-86